createdAt,value
2023-05-01T00:00:00.698Z,469.40
2023-05-01T00:01:00.720Z,396.50
2023-05-01T00:02:00.698Z,645.90
2023-05-01T00:03:00.824Z,707.20
2023-05-01T00:04:00.888Z,606.60
2023-05-01T00:05:00.800Z,575.90
2023-05-01T00:06:00.643Z,541.70
2023-05-01T00:07:00.645Z,599.80
2023-05-01T00:08:00.620Z,569.50
2023-05-01T00:09:00.603Z,426.10
2023-05-01T00:10:00.593Z,409.40
2023-05-01T00:11:00.583Z,382.30
2023-05-01T00:12:00.613Z,428.30
2023-05-01T00:13:00.547Z,542.60
2023-05-01T00:14:00.563Z,613.20
2023-05-01T00:15:00.561Z,578.70
2023-05-01T00:16:00.534Z,576.30
2023-05-01T00:17:00.526Z,604.50
2023-05-01T00:18:00.517Z,605.80
2023-05-01T00:19:00.509Z,587.10
2023-05-01T00:20:00.485Z,463.30
2023-05-01T00:21:00.458Z,540.40
2023-05-01T00:22:00.497Z,399.00
2023-05-01T00:23:00.454Z,627.40
2023-05-01T00:24:00.472Z,639.90
2023-05-01T00:25:00.428Z,461.60
2023-05-01T00:26:00.412Z,477.90
2023-05-01T00:27:00.441Z,440.70
2023-05-01T00:28:00.395Z,640.60
2023-05-01T00:29:00.384Z,660.20
2023-05-01T00:30:00.367Z,637.40
2023-05-01T00:31:00.367Z,652.80
2023-05-01T00:32:00.425Z,633.10
2023-05-01T00:33:00.364Z,603.40
2023-05-01T00:34:00.332Z,595.80
2023-05-01T00:35:00.328Z,593.30
2023-05-01T00:36:00.315Z,596.30
2023-05-01T00:37:00.342Z,610.20
2023-05-01T00:38:00.277Z,621.80
2023-05-01T00:39:00.265Z,489.90
2023-05-01T00:40:00.287Z,516.90
2023-05-01T00:41:00.237Z,497.90
2023-05-01T00:42:00.248Z,529.20
2023-05-01T00:43:00.235Z,523.60
2023-05-01T00:44:00.196Z,525.40
2023-05-01T00:45:00.210Z,510.90
2023-05-01T00:46:00.334Z,513.70
2023-05-01T00:47:00.234Z,463.70
2023-05-01T00:48:00.269Z,480.40
2023-05-01T00:49:00.179Z,522.70
2023-05-01T00:50:00.188Z,507.70
2023-05-01T00:51:00.170Z,514.50
2023-05-01T00:52:00.186Z,519.60
2023-05-01T00:53:00.158Z,493.20
2023-05-01T00:54:00.170Z,578.00
2023-05-01T00:55:00.127Z,517.60
2023-05-01T00:56:00.088Z,544.10
2023-05-01T00:57:00.093Z,522.10
2023-05-01T00:58:00.074Z,507.50
2023-05-01T00:59:00.065Z,544.70
2023-05-01T01:00:00.067Z,554.70
2023-05-01T01:01:00.054Z,575.40
2023-05-01T01:02:00.058Z,559.80
2023-05-01T01:03:00.053Z,552.30
2023-05-01T01:04:00.048Z,537.40
2023-05-01T01:05:00.034Z,528.80
2023-05-01T01:05:59.982Z,522.80
2023-05-01T01:07:00.005Z,520.40
2023-05-01T01:07:59.939Z,483.00
2023-05-01T01:08:59.924Z,513.50
2023-05-01T01:09:59.925Z,475.80
2023-05-01T01:10:59.921Z,522.20
2023-05-01T01:11:59.924Z,492.20
2023-05-01T01:12:59.883Z,477.30
2023-05-01T01:13:59.877Z,679.10
2023-05-01T01:14:59.850Z,538.50
2023-05-01T01:15:59.846Z,527.00
2023-05-01T01:16:59.921Z,527.20
2023-05-01T01:17:59.869Z,511.60
2023-05-01T01:18:59.813Z,453.60
2023-05-01T01:19:59.811Z,774.90
2023-05-01T01:20:59.795Z,758.10
2023-05-01T01:21:59.829Z,541.90
2023-05-01T01:22:59.786Z,748.20
2023-05-01T01:23:59.781Z,798.40
2023-05-01T01:24:59.761Z,776.90
2023-05-01T01:25:59.795Z,746.00
2023-05-01T01:26:59.710Z,753.50
2023-05-01T01:27:59.775Z,766.60
2023-05-01T01:28:59.709Z,775.20
2023-05-01T01:29:59.700Z,784.60
2023-05-01T01:30:59.715Z,779.40
2023-05-01T01:31:59.673Z,782.50
2023-05-01T01:32:59.752Z,798.40
2023-05-01T01:33:59.661Z,774.70
2023-05-01T01:34:59.625Z,779.20
2023-05-01T01:35:59.629Z,762.40
2023-05-01T01:36:59.616Z,601.40
2023-05-01T01:37:59.649Z,582.60
2023-05-01T01:38:59.609Z,713.10
2023-05-01T01:39:59.590Z,660.90
2023-05-01T01:40:59.605Z,678.90
2023-05-01T01:41:59.582Z,688.60
2023-05-01T01:42:59.596Z,471.40
2023-05-01T01:43:59.545Z,824.80
2023-05-01T01:44:59.522Z,800.60
2023-05-01T01:45:59.550Z,502.00
2023-05-01T01:46:59.514Z,440.00
2023-05-01T01:47:59.590Z,733.80
2023-05-01T01:48:59.488Z,729.80
2023-05-01T01:49:59.495Z,699.20
2023-05-01T01:50:59.466Z,698.00
2023-05-01T01:51:59.452Z,669.20
2023-05-01T01:52:59.461Z,580.50
2023-05-01T01:53:59.445Z,565.60
2023-05-01T01:54:59.419Z,766.80
2023-05-01T01:56:00.787Z,788.00
2023-05-01T01:56:59.383Z,552.50
2023-05-01T01:57:59.434Z,715.20
2023-05-01T01:58:59.364Z,547.50
2023-05-01T01:59:59.348Z,552.50
2023-05-01T02:00:59.334Z,550.60
2023-05-01T02:01:59.504Z,522.00
2023-05-01T02:02:59.429Z,527.40
2023-05-01T02:03:59.368Z,514.60
2023-05-01T02:04:59.311Z,719.50
2023-05-01T02:05:59.344Z,517.60
2023-05-01T02:06:59.302Z,512.90
2023-05-01T02:07:59.349Z,492.10
2023-05-01T02:08:59.269Z,544.70
2023-05-01T02:09:59.437Z,540.40
2023-05-01T02:11:01.113Z,543.90
2023-05-01T02:11:59.230Z,574.60
2023-05-01T02:12:59.274Z,529.00
2023-05-01T02:13:59.206Z,526.00
2023-05-01T02:14:59.185Z,529.60
2023-05-01T02:15:59.225Z,510.90
2023-05-01T02:16:59.154Z,521.00
2023-05-01T02:17:59.308Z,508.30
2023-05-01T02:18:59.142Z,503.10
2023-05-01T02:19:59.135Z,508.60
2023-05-01T02:20:59.130Z,509.30
2023-05-01T02:21:59.112Z,500.60
2023-05-01T02:22:59.139Z,507.70
2023-05-01T02:23:59.083Z,516.70
2023-05-01T02:24:59.078Z,684.30
2023-05-01T02:25:59.071Z,606.20
2023-05-01T02:26:59.062Z,690.80
2023-05-01T02:27:59.089Z,500.30
2023-05-01T02:28:59.033Z,544.10
2023-05-01T02:29:59.217Z,532.20
2023-05-01T02:30:59.026Z,542.60
2023-05-01T02:31:59.189Z,552.40
2023-05-01T02:32:59.061Z,494.70
2023-05-01T02:33:58.974Z,581.20
2023-05-01T02:34:58.960Z,691.80
2023-05-01T02:35:58.962Z,855.90
2023-05-01T02:36:58.954Z,822.90
2023-05-01T02:37:58.978Z,819.90
2023-05-01T02:38:58.908Z,851.90
2023-05-01T02:39:59.107Z,842.30
2023-05-01T02:40:58.900Z,856.30
2023-05-01T02:41:58.920Z,852.30
2023-05-01T02:42:58.921Z,841.50
2023-05-01T02:43:58.874Z,844.40
2023-05-01T02:44:58.860Z,763.90
2023-05-01T02:45:59.096Z,746.90
2023-05-01T02:46:58.858Z,714.10
2023-05-01T02:47:58.893Z,768.30
2023-05-01T02:48:58.815Z,767.80
2023-05-01T02:49:59.059Z,778.60
2023-05-01T02:50:58.796Z,771.70
2023-05-01T02:51:58.787Z,773.50
2023-05-01T02:52:58.828Z,776.20
2023-05-01T02:53:58.787Z,777.20
2023-05-01T02:54:58.741Z,710.00
2023-05-01T02:55:58.724Z,646.20
2023-05-01T02:56:58.726Z,735.70
2023-05-01T02:57:58.761Z,714.90
2023-05-01T02:58:58.694Z,582.10
2023-05-01T02:59:58.701Z,547.90
2023-05-01T03:00:58.706Z,544.10
2023-05-01T03:01:58.682Z,549.10
2023-05-01T03:02:58.759Z,572.30
2023-05-01T03:03:58.737Z,566.60
2023-05-01T03:04:58.711Z,581.30
2023-05-01T03:05:58.681Z,565.90
2023-05-01T03:06:58.651Z,552.80
2023-05-01T03:07:58.691Z,553.80
2023-05-01T03:08:58.595Z,564.90
2023-05-01T03:09:58.720Z,562.40
2023-05-01T03:10:58.575Z,567.60
2023-05-01T03:11:58.555Z,598.10
2023-05-01T03:12:58.582Z,583.30
2023-05-01T03:13:58.553Z,562.90
2023-05-01T03:14:58.534Z,561.90
2023-05-01T03:15:58.540Z,565.90
2023-05-01T03:16:58.626Z,593.40
2023-05-01T03:17:58.559Z,585.00
2023-05-01T03:18:58.474Z,593.50
2023-05-01T03:19:58.602Z,590.80
2023-05-01T03:20:58.472Z,595.90
2023-05-01T03:21:58.469Z,581.50
2023-05-01T03:22:58.480Z,575.10
2023-05-01T03:23:58.435Z,577.50
2023-05-01T03:24:58.396Z,579.20
2023-05-01T03:25:58.407Z,579.90
2023-05-01T03:26:58.388Z,570.30
2023-05-01T03:27:58.396Z,580.50
2023-05-01T03:28:58.413Z,579.20
2023-05-01T03:29:58.457Z,587.70
2023-05-01T03:30:58.354Z,649.90
2023-05-01T03:31:58.430Z,651.70
2023-05-01T03:32:58.347Z,654.90
2023-05-01T03:33:58.366Z,680.50
2023-05-01T03:34:58.373Z,622.90
2023-05-01T03:35:58.293Z,676.30
2023-05-01T03:36:58.306Z,648.60
2023-05-01T03:37:58.270Z,676.50
2023-05-01T03:38:58.298Z,699.70
2023-05-01T03:39:58.428Z,743.80
2023-05-01T03:40:58.242Z,680.70
2023-05-01T03:41:58.232Z,717.90
2023-05-01T03:42:58.208Z,711.30
2023-05-01T03:43:58.244Z,686.50
2023-05-01T03:44:58.197Z,668.20
2023-05-01T03:45:58.229Z,683.90
2023-05-01T03:46:58.170Z,684.10
2023-05-01T03:47:58.206Z,694.50
2023-05-01T03:48:58.191Z,692.90
2023-05-01T03:49:58.381Z,633.20
2023-05-01T03:50:58.145Z,633.60
2023-05-01T03:51:58.128Z,647.70
2023-05-01T03:52:58.119Z,655.50
2023-05-01T03:53:58.133Z,627.80
2023-05-01T03:54:58.101Z,577.70
2023-05-01T03:55:58.080Z,586.80
2023-05-01T03:56:58.078Z,590.10
2023-05-01T03:57:58.082Z,564.20
2023-05-01T03:58:58.087Z,589.30
2023-05-01T03:59:58.271Z,568.60
2023-05-01T04:00:58.033Z,568.50
2023-05-01T04:01:58.058Z,571.30
2023-05-01T04:02:58.257Z,546.20
2023-05-01T04:03:58.303Z,559.20
2023-05-01T04:04:57.979Z,585.20
2023-05-01T04:05:58.058Z,533.00
2023-05-01T04:06:57.959Z,467.40
2023-05-01T04:07:57.976Z,511.50
2023-05-01T04:08:57.951Z,493.00
2023-05-01T04:09:58.087Z,508.60
2023-05-01T04:10:57.907Z,497.50
2023-05-01T04:11:57.893Z,456.40
2023-05-01T04:12:57.884Z,438.70
2023-05-01T04:13:57.904Z,427.00
2023-05-01T04:14:57.898Z,404.10
2023-05-01T04:15:57.950Z,400.80
2023-05-01T04:16:57.827Z,403.70
2023-05-01T04:17:57.874Z,398.40
2023-05-01T04:18:57.822Z,395.60
2023-05-01T04:19:58.252Z,415.90
2023-05-01T04:20:57.805Z,500.80
2023-05-01T04:21:57.804Z,410.20
2023-05-01T04:22:57.768Z,421.20
2023-05-01T04:23:57.760Z,650.20
2023-05-01T04:24:57.787Z,577.90
2023-05-01T04:25:57.747Z,571.70
2023-05-01T04:26:57.762Z,476.70
2023-05-01T04:27:57.738Z,381.30
2023-05-01T04:28:57.744Z,468.60
2023-05-01T04:29:58.266Z,474.10
2023-05-01T04:30:57.727Z,442.60
2023-05-01T04:31:57.849Z,510.90
2023-05-01T04:32:57.720Z,456.90
2023-05-01T04:33:57.677Z,423.30
2023-05-01T04:34:58.007Z,431.60
2023-05-01T04:35:57.640Z,433.60
2023-05-01T04:36:57.626Z,418.60
2023-05-01T04:37:57.625Z,472.40
2023-05-01T04:38:57.597Z,453.50
2023-05-01T04:39:58.045Z,449.60
2023-05-01T04:40:57.574Z,426.60
2023-05-01T04:41:57.572Z,398.70
2023-05-01T04:42:57.546Z,551.20
2023-05-01T04:43:57.552Z,246.10
2023-05-01T04:44:57.558Z,315.90
2023-05-01T04:45:57.517Z,299.70
2023-05-01T04:46:57.567Z,251.00
2023-05-01T04:47:57.583Z,313.70
2023-05-01T04:48:57.456Z,330.80
2023-05-01T04:49:57.668Z,216.00
2023-05-01T04:50:57.467Z,216.60
2023-05-01T04:51:57.441Z,336.80
2023-05-01T04:52:57.433Z,189.80
2023-05-01T04:53:57.470Z,303.00
2023-05-01T04:54:57.408Z,276.50
2023-05-01T04:55:57.395Z,275.70
2023-05-01T04:56:57.381Z,178.70
2023-05-01T04:57:57.376Z,323.50
2023-05-01T04:58:57.400Z,361.30
2023-05-01T04:59:57.852Z,360.70
2023-05-01T05:00:57.354Z,374.20
2023-05-01T05:01:57.486Z,340.10
2023-05-01T05:02:57.430Z,246.00
2023-05-01T05:03:57.586Z,299.40
2023-05-01T05:04:57.287Z,277.50
2023-05-01T05:05:57.341Z,220.90
2023-05-01T05:06:57.287Z,354.50
2023-05-01T05:07:57.306Z,300.60
2023-05-01T05:08:57.261Z,299.80
2023-05-01T05:09:57.521Z,206.10
2023-05-01T05:10:57.241Z,260.00
2023-05-01T05:11:57.213Z,270.90
2023-05-01T05:12:57.248Z,216.60
2023-05-01T05:13:57.220Z,194.80
2023-05-01T05:14:57.246Z,209.30
2023-05-01T05:15:57.175Z,221.60
2023-05-01T05:16:57.189Z,216.60
2023-05-01T05:17:57.260Z,143.20
2023-05-01T05:18:57.147Z,260.30
2023-05-01T05:19:57.307Z,224.00
2023-05-01T05:20:57.127Z,215.70
2023-05-01T05:21:57.116Z,136.80
2023-05-01T05:22:57.116Z,169.10
2023-05-01T05:23:57.093Z,240.10
2023-05-01T05:24:57.110Z,116.70
2023-05-01T05:25:57.069Z,167.90
2023-05-01T05:26:57.065Z,211.30
2023-05-01T05:27:57.036Z,84.10
2023-05-01T05:28:57.044Z,52.70
2023-05-01T05:29:57.201Z,80.10
2023-05-01T05:30:57.012Z,239.10
2023-05-01T05:31:57.028Z,185.40
2023-05-01T05:32:57.045Z,267.10
2023-05-01T05:33:56.971Z,167.00
2023-05-01T05:34:57.008Z,132.60
2023-05-01T05:35:56.953Z,268.30
2023-05-01T05:36:56.943Z,158.40
2023-05-01T05:37:56.919Z,254.10
2023-05-01T05:38:56.932Z,206.60
2023-05-01T05:39:57.214Z,329.10
2023-05-01T05:40:56.891Z,183.30
2023-05-01T05:41:56.901Z,196.30
2023-05-01T05:42:56.864Z,220.90
2023-05-01T05:43:56.865Z,182.00
2023-05-01T05:44:56.883Z,95.90
2023-05-01T05:45:56.896Z,93.20
2023-05-01T05:46:56.829Z,74.10
2023-05-01T05:47:56.937Z,78.30
2023-05-01T05:48:56.798Z,228.80
2023-05-01T05:49:56.992Z,55.70
2023-05-01T05:50:56.787Z,60.60
2023-05-01T05:51:56.793Z,51.40
2023-05-01T05:52:56.778Z,58.20
2023-05-01T05:53:56.743Z,57.50
2023-05-01T05:54:56.830Z,49.10
2023-05-01T05:55:56.740Z,40.10
2023-05-01T05:56:56.739Z,123.50
2023-05-01T05:57:56.736Z,39.30
2023-05-01T05:58:56.699Z,32.90
2023-05-01T05:59:56.958Z,31.50
2023-05-01T06:00:56.679Z,32.00
2023-05-01T06:01:56.675Z,28.10
2023-05-01T06:02:56.770Z,25.90
2023-05-01T06:03:56.743Z,24.60
2023-05-01T06:04:56.671Z,25.60
2023-05-01T06:05:56.765Z,211.20
2023-05-01T06:06:56.682Z,40.20
2023-05-01T06:07:56.596Z,52.80
2023-05-01T06:08:56.606Z,119.60
2023-05-01T06:09:56.801Z,181.40
2023-05-01T06:10:56.577Z,106.10
2023-05-01T06:11:56.542Z,106.00
2023-05-01T06:13:05.451Z,53.30
2023-05-01T06:13:57.532Z,45.50
2023-05-01T06:14:56.552Z,188.50
2023-05-01T06:15:56.531Z,71.10
2023-05-01T06:16:56.486Z,105.30
2023-05-01T06:17:56.565Z,228.10
2023-05-01T06:18:56.496Z,273.90
2023-05-01T06:19:56.695Z,161.50
2023-05-01T06:20:56.433Z,72.10
2023-05-01T06:21:56.428Z,125.60
2023-05-01T06:22:56.431Z,109.60
2023-05-01T06:23:56.442Z,32.90
2023-05-01T06:24:56.422Z,59.60
2023-05-01T06:25:56.384Z,38.50
2023-05-01T06:26:56.382Z,45.40
2023-05-01T06:27:56.376Z,45.90
2023-05-01T06:28:56.410Z,24.70
2023-05-01T06:29:56.654Z,18.70
2023-05-01T06:30:56.363Z,21.50
2023-05-01T06:31:56.410Z,22.90
2023-05-01T06:32:56.368Z,33.40
2023-05-01T06:33:56.342Z,26.70
2023-05-01T06:34:56.291Z,23.20
2023-05-01T06:35:56.274Z,24.40
2023-05-01T06:36:56.290Z,20.30
2023-05-01T06:37:56.321Z,18.00
2023-05-01T06:38:56.232Z,17.70
2023-05-01T06:39:56.466Z,19.00
2023-05-01T06:40:56.218Z,17.90
2023-05-01T06:41:56.196Z,17.90
2023-05-01T06:42:56.187Z,17.80
2023-05-01T06:43:56.213Z,18.60
2023-05-01T06:44:56.197Z,17.70
2023-05-01T06:45:56.167Z,17.00
2023-05-01T06:46:56.171Z,16.00
2023-05-01T06:47:56.182Z,15.90
2023-05-01T06:48:56.107Z,15.60
2023-05-01T06:49:56.440Z,17.00
2023-05-01T06:50:56.116Z,16.40
2023-05-01T06:51:56.105Z,17.10
2023-05-01T06:52:56.093Z,17.30
2023-05-01T06:53:56.070Z,37.20
2023-05-01T06:54:56.097Z,18.30
2023-05-01T06:55:56.058Z,21.80
2023-05-01T06:56:56.054Z,20.90
2023-05-01T06:57:56.031Z,23.90
2023-05-01T06:58:56.026Z,26.30
2023-05-01T06:59:56.288Z,32.00
2023-05-01T07:00:56.047Z,36.90
2023-05-01T07:01:56.001Z,38.20
2023-05-01T07:02:56.073Z,47.30
2023-05-01T07:03:55.961Z,29.00
2023-05-01T07:04:55.977Z,39.40
2023-05-01T07:05:55.951Z,37.20
2023-05-01T07:06:55.939Z,43.70
2023-05-01T07:08:01.297Z,43.50
2023-05-01T07:08:56.925Z,40.60
2023-05-01T07:09:56.058Z,35.60
2023-05-01T07:10:55.899Z,36.40
2023-05-01T07:11:55.881Z,44.70
2023-05-01T07:12:55.879Z,49.70
2023-05-01T07:13:55.846Z,58.80
2023-05-01T07:14:55.889Z,63.20
2023-05-01T07:15:55.848Z,73.60
2023-05-01T07:16:55.910Z,55.70
2023-05-01T07:17:55.807Z,51.30
2023-05-01T07:18:55.787Z,55.60
2023-05-01T07:19:56.097Z,38.60
2023-05-01T07:20:55.763Z,30.40
2023-05-01T07:21:55.773Z,28.00
2023-05-01T07:22:55.783Z,31.60
2023-05-01T07:23:55.720Z,19.40
2023-05-01T07:24:55.779Z,42.30
2023-05-01T07:25:55.696Z,35.40
2023-05-01T07:26:55.720Z,28.80
2023-05-01T07:27:55.712Z,18.70
2023-05-01T07:28:55.691Z,24.20
2023-05-01T07:29:55.908Z,27.90
2023-05-01T07:30:55.669Z,26.50
2023-05-01T07:31:55.733Z,25.40
2023-05-01T07:32:55.691Z,27.60
2023-05-01T07:33:55.626Z,30.20
2023-05-01T07:34:55.662Z,23.40
2023-05-01T07:35:55.602Z,22.60
2023-05-01T07:36:55.594Z,29.00
2023-05-01T07:37:55.596Z,31.10
2023-05-01T07:38:55.586Z,34.70
2023-05-01T07:39:55.958Z,34.30
2023-05-01T07:40:55.571Z,34.80
2023-05-01T07:41:55.540Z,30.60
2023-05-01T07:42:55.555Z,30.50
2023-05-01T07:43:55.497Z,35.90
2023-05-01T07:44:55.544Z,28.90
2023-05-01T07:45:55.508Z,32.00
2023-05-01T07:46:55.471Z,35.30
2023-05-01T07:47:55.532Z,37.60
2023-05-01T07:48:55.458Z,51.30
2023-05-01T07:49:55.872Z,21.90
2023-05-01T07:50:55.443Z,23.40
2023-05-01T07:51:55.422Z,25.80
2023-05-01T07:52:55.418Z,27.00
2023-05-01T07:53:55.410Z,44.50
2023-05-01T07:54:55.422Z,40.60
2023-05-01T07:55:55.367Z,39.30
2023-05-01T07:56:55.370Z,39.80
2023-05-01T07:57:55.360Z,35.50
2023-05-01T07:58:55.353Z,35.80
2023-05-01T07:59:55.646Z,25.90
2023-05-01T08:00:55.294Z,31.60
2023-05-01T08:01:55.352Z,25.50
2023-05-01T08:02:55.555Z,23.90
2023-05-01T08:03:55.409Z,20.10
2023-05-01T08:04:55.503Z,19.30
2023-05-01T08:05:55.290Z,18.30
2023-05-01T08:06:55.375Z,23.00
2023-05-01T08:07:55.220Z,24.30
2023-05-01T08:08:55.251Z,25.10
2023-05-01T08:09:57.868Z,54.90
2023-05-01T08:10:55.241Z,94.10
2023-05-01T08:11:55.198Z,110.00
2023-05-01T08:12:55.216Z,75.60
2023-05-01T08:13:55.146Z,42.80
2023-05-01T08:14:55.215Z,32.60
2023-05-01T08:15:55.353Z,32.40
2023-05-01T08:16:55.144Z,43.00
2023-05-01T08:17:55.142Z,35.70
2023-05-01T08:18:55.161Z,35.00
2023-05-01T08:19:55.397Z,29.60
2023-05-01T08:20:55.122Z,58.60
2023-05-01T08:21:55.084Z,41.00
2023-05-01T08:22:55.070Z,38.90
2023-05-01T08:23:55.054Z,28.90
2023-05-01T08:24:55.082Z,30.80
2023-05-01T08:25:55.047Z,20.80
2023-05-01T08:26:55.025Z,20.80
2023-05-01T08:27:55.001Z,16.40
2023-05-01T08:28:55.007Z,16.60
2023-05-01T08:29:55.275Z,32.40
2023-05-01T08:30:54.985Z,20.50
2023-05-01T08:31:55.158Z,18.00
2023-05-01T08:32:55.039Z,24.00
2023-05-01T08:33:54.944Z,31.70
2023-05-01T08:34:55.008Z,38.20
2023-05-01T08:35:54.926Z,42.40
2023-05-01T08:36:54.936Z,31.80
2023-05-01T08:37:54.915Z,38.40
2023-05-01T08:38:54.885Z,43.80
2023-05-01T08:39:55.140Z,26.60
2023-05-01T08:40:54.855Z,42.40
2023-05-01T08:41:54.855Z,41.10
2023-05-01T08:42:54.844Z,42.80
2023-05-01T08:43:54.876Z,53.10
2023-05-01T08:44:54.843Z,56.80
2023-05-01T08:45:54.914Z,56.70
2023-05-01T08:46:54.864Z,46.80
2023-05-01T08:47:54.895Z,44.60
2023-05-01T08:48:54.787Z,54.60
2023-05-01T08:49:55.039Z,49.00
2023-05-01T08:50:54.830Z,54.40
2023-05-01T08:51:54.743Z,53.10
2023-05-01T08:52:54.763Z,64.10
2023-05-01T08:53:54.736Z,51.10
2023-05-01T08:54:54.726Z,47.90
2023-05-01T08:55:54.756Z,79.60
2023-05-01T08:56:54.693Z,54.70
2023-05-01T08:57:54.693Z,63.70
2023-05-01T08:58:54.694Z,67.20
2023-05-01T08:59:54.811Z,50.20
2023-05-01T09:00:54.698Z,51.20
2023-05-01T09:01:54.711Z,59.00
2023-05-01T09:02:54.646Z,59.10
2023-05-01T09:03:54.684Z,57.80
2023-05-01T09:04:54.617Z,66.40
2023-05-01T09:05:54.630Z,70.20
2023-05-01T09:06:54.619Z,54.20
2023-05-01T09:07:54.582Z,58.20
2023-05-01T09:08:54.550Z,55.00
2023-05-01T09:09:54.794Z,49.80
2023-05-01T09:10:54.580Z,48.20
2023-05-01T09:11:54.530Z,49.60
2023-05-01T09:12:54.531Z,39.30
2023-05-01T09:13:54.524Z,33.50
2023-05-01T09:14:54.493Z,29.90
2023-05-01T09:15:54.585Z,32.50
2023-05-01T09:16:54.615Z,32.10
2023-05-01T09:17:54.489Z,28.90
2023-05-01T09:18:54.463Z,31.60
2023-05-01T09:19:54.589Z,26.70
2023-05-01T09:20:54.471Z,25.20
2023-05-01T09:21:54.434Z,45.80
2023-05-01T09:22:54.416Z,27.80
2023-05-01T09:23:54.412Z,31.90
2023-05-01T09:24:54.386Z,36.90
2023-05-01T09:25:54.425Z,31.80
2023-05-01T09:26:54.362Z,35.80
2023-05-01T09:27:54.370Z,39.40
2023-05-01T09:28:54.378Z,41.40
2023-05-01T09:29:54.464Z,37.20
2023-05-01T09:30:54.372Z,42.40
2023-05-01T09:31:54.423Z,38.90
2023-05-01T09:32:54.347Z,40.70
2023-05-01T09:33:54.297Z,39.70
2023-05-01T09:34:54.286Z,44.60
2023-05-01T09:35:54.371Z,42.40
2023-05-01T09:36:54.273Z,49.50
2023-05-01T09:37:54.252Z,55.90
2023-05-01T09:38:54.233Z,49.20
2023-05-01T09:39:54.494Z,57.00
2023-05-01T09:40:54.246Z,62.80
2023-05-01T09:41:54.222Z,63.20
2023-05-01T09:42:54.224Z,54.50
2023-05-01T09:43:54.202Z,64.00
2023-05-01T09:44:54.205Z,84.30
2023-05-01T09:45:54.330Z,83.60
2023-05-01T09:46:54.161Z,86.80
2023-05-01T09:47:54.205Z,91.00
2023-05-01T09:48:54.150Z,94.10
2023-05-01T09:49:54.380Z,71.70
2023-05-01T09:50:54.312Z,56.60
2023-05-01T09:51:54.117Z,47.30
2023-05-01T09:52:54.080Z,48.00
2023-05-01T09:53:54.088Z,50.30
2023-05-01T09:54:54.063Z,51.60
2023-05-01T09:55:54.085Z,47.90
2023-05-01T09:56:54.081Z,50.50
2023-05-01T09:57:54.068Z,56.40
2023-05-01T09:58:54.033Z,61.20
2023-05-01T09:59:54.274Z,53.70
2023-05-01T10:00:54.020Z,56.70
2023-05-01T10:01:54.112Z,66.50
2023-05-01T10:02:54.132Z,61.70
2023-05-01T10:03:54.128Z,54.40
2023-05-01T10:04:53.950Z,53.70
2023-05-01T10:05:53.955Z,55.00
2023-05-01T10:06:54.028Z,56.40
2023-05-01T10:07:53.933Z,50.10
2023-05-01T10:08:53.921Z,59.50
2023-05-01T10:09:53.986Z,62.40
2023-05-01T10:10:53.927Z,58.90
2023-05-01T10:11:53.967Z,52.60
2023-05-01T10:12:53.917Z,52.90
2023-05-01T10:13:53.863Z,44.90
2023-05-01T10:14:53.884Z,41.60
2023-05-01T10:15:53.893Z,54.90
2023-05-01T10:16:53.940Z,49.70
2023-05-01T10:17:54.412Z,54.50
2023-05-01T10:18:53.820Z,61.40
2023-05-01T10:19:53.809Z,56.10
2023-05-01T10:20:53.792Z,53.00
2023-05-01T10:21:53.812Z,55.10
2023-05-01T10:22:53.764Z,57.50
2023-05-01T10:23:53.772Z,54.00
2023-05-01T10:24:53.744Z,55.50
2023-05-01T10:25:53.790Z,54.00
2023-05-01T10:26:53.769Z,49.50
2023-05-01T10:27:53.715Z,53.20
2023-05-01T10:28:53.717Z,69.30
2023-05-01T10:29:53.765Z,55.20
2023-05-01T10:30:53.690Z,49.40
2023-05-01T10:31:53.797Z,47.50
2023-05-01T10:32:53.674Z,44.80
2023-05-01T10:33:53.644Z,37.50
2023-05-01T10:34:53.765Z,36.80
2023-05-01T10:35:53.655Z,34.40
2023-05-01T10:36:53.689Z,41.60
2023-05-01T10:37:53.672Z,48.40
2023-05-01T10:38:53.613Z,53.50
2023-05-01T10:39:53.591Z,51.10
2023-05-01T10:40:53.583Z,46.00
2023-05-01T10:41:53.596Z,44.30
2023-05-01T10:42:53.598Z,46.70
2023-05-01T10:43:53.568Z,52.30
2023-05-01T10:44:53.583Z,60.90
2023-05-01T10:45:53.567Z,60.70
2023-05-01T10:46:53.609Z,52.10
2023-05-01T10:47:53.579Z,53.40
2023-05-01T10:48:53.505Z,59.40
2023-05-01T10:49:53.510Z,61.90
2023-05-01T10:50:53.480Z,64.80
2023-05-01T10:51:53.515Z,59.50
2023-05-01T10:52:53.450Z,57.90
2023-05-01T10:53:53.424Z,50.00
2023-05-01T10:54:53.472Z,51.80
2023-05-01T10:55:53.427Z,40.80
2023-05-01T10:56:53.443Z,37.00
2023-05-01T10:57:53.408Z,37.10
2023-05-01T10:58:53.414Z,41.70
2023-05-01T10:59:53.373Z,42.70
2023-05-01T11:00:53.373Z,48.30
2023-05-01T11:01:53.540Z,54.80
2023-05-01T11:02:53.340Z,50.20
2023-05-01T11:03:53.333Z,53.30
2023-05-01T11:04:53.344Z,50.20
2023-05-01T11:05:53.401Z,54.60
2023-05-01T11:06:53.451Z,56.70
2023-05-01T11:07:53.290Z,63.40
2023-05-01T11:08:53.276Z,75.50
2023-05-01T11:09:53.276Z,70.60
2023-05-01T11:10:53.272Z,78.00
2023-05-01T11:11:53.271Z,65.70
2023-05-01T11:12:53.235Z,61.90
2023-05-01T11:13:53.236Z,60.00
2023-05-01T11:14:53.254Z,59.90
2023-05-01T11:15:53.242Z,57.70
2023-05-01T11:16:53.292Z,60.30
2023-05-01T11:17:53.245Z,60.40
2023-05-01T11:18:53.176Z,63.90
2023-05-01T11:19:53.172Z,63.80
2023-05-01T11:20:53.171Z,62.80
2023-05-01T11:21:53.202Z,58.70
2023-05-01T11:22:53.127Z,50.90
2023-05-01T11:23:53.137Z,54.40
2023-05-01T11:24:53.109Z,56.70
2023-05-01T11:25:53.101Z,56.70
2023-05-01T11:26:53.126Z,54.60
2023-05-01T11:27:53.129Z,58.90
2023-05-01T11:28:53.061Z,58.40
2023-05-01T11:29:53.058Z,59.00
2023-05-01T11:30:53.025Z,50.90
2023-05-01T11:31:53.116Z,46.90
2023-05-01T11:32:53.085Z,46.00
2023-05-01T11:33:53.027Z,40.10
2023-05-01T11:34:53.029Z,37.40
2023-05-01T11:35:52.988Z,41.40
2023-05-01T11:36:53.008Z,44.30
2023-05-01T11:37:52.971Z,46.90
2023-05-01T11:38:52.949Z,43.60
2023-05-01T11:39:52.970Z,47.10
2023-05-01T11:40:52.939Z,43.70
2023-05-01T11:41:52.986Z,44.70
2023-05-01T11:42:52.957Z,43.30
2023-05-01T11:43:52.930Z,38.30
2023-05-01T11:44:52.883Z,39.20
2023-05-01T11:45:52.987Z,33.70
2023-05-01T11:46:52.875Z,34.90
2023-05-01T11:47:52.954Z,42.40
2023-05-01T11:48:52.878Z,47.20
2023-05-01T11:49:52.857Z,43.90
2023-05-01T11:50:52.829Z,43.40
2023-05-01T11:51:52.830Z,32.50
2023-05-01T11:52:52.861Z,51.90
2023-05-01T11:53:52.838Z,51.70
2023-05-01T11:54:52.793Z,44.20
2023-05-01T11:55:52.797Z,30.50
2023-05-01T11:56:52.759Z,30.20
2023-05-01T11:57:52.792Z,34.70
2023-05-01T11:58:52.731Z,41.40
2023-05-01T11:59:52.729Z,97.40
2023-05-01T12:00:52.719Z,84.90
2023-05-01T12:01:52.812Z,64.50
2023-05-01T12:02:52.831Z,65.40
2023-05-01T12:03:52.804Z,38.70
2023-05-01T12:04:52.926Z,38.50
2023-05-01T12:05:52.689Z,32.30
2023-05-01T12:06:52.767Z,28.80
2023-05-01T12:07:52.713Z,30.30
2023-05-01T12:08:52.697Z,25.60
2023-05-01T12:09:52.654Z,26.30
2023-05-01T12:10:52.732Z,29.80
2023-05-01T12:11:53.139Z,31.90
2023-05-01T12:12:52.670Z,34.20
2023-05-01T12:13:52.627Z,43.30
2023-05-01T12:14:52.575Z,39.60
2023-05-01T12:15:52.633Z,40.60
2023-05-01T12:16:52.654Z,42.50
2023-05-01T12:17:52.685Z,52.30
2023-05-01T12:18:52.610Z,43.30
2023-05-01T12:19:52.568Z,29.70
2023-05-01T12:20:52.536Z,28.20
2023-05-01T12:21:52.499Z,27.50
2023-05-01T12:22:52.530Z,26.00
2023-05-01T12:23:52.468Z,26.40
2023-05-01T12:24:52.488Z,28.60
2023-05-01T12:25:52.465Z,24.10
2023-05-01T12:26:52.445Z,25.80
2023-05-01T12:27:52.486Z,28.00
2023-05-01T12:28:52.431Z,25.20
2023-05-01T12:29:52.416Z,24.90
2023-05-01T12:30:52.416Z,26.40
2023-05-01T12:31:52.471Z,27.30
2023-05-01T12:32:52.472Z,27.60
2023-05-01T12:33:52.385Z,24.10
2023-05-01T12:34:52.385Z,22.60
2023-05-01T12:35:52.411Z,23.10
2023-05-01T12:36:52.356Z,21.80
2023-05-01T12:37:52.396Z,22.00
2023-05-01T12:38:52.350Z,23.80
2023-05-01T12:39:52.303Z,22.60
2023-05-01T12:40:52.316Z,22.20